sensor_id;sensor_type;location;lat;lon;timestamp;P1;durP1;ratioP1;P2;durP2;ratioP2
1344;SDS011;15375;48.540;9.268;2023-05-16T00:01:52;9.70;;;8.53;;
1344;SDS011;15375;48.540;9.268;2023-05-16T00:04:18;9.80;;;8.60;;
1344;SDS011;15375;48.540;9.268;2023-05-16T00:06:44;9.57;;;8.67;;
1344;SDS011;15375;48.540;9.268;2023-05-16T00:09:09;9.27;;;8.37;;
1344;SDS011;15375;48.540;9.268;2023-05-16T00:11:35;9.47;;;8.63;;
1344;SDS011;15375;48.540;9.268;2023-05-16T00:14:00;9.00;;;8.10;;
1344;SDS011;15375;48.540;9.268;2023-05-16T00:16:26;12.17;;;8.33;;
1344;SDS011;15375;48.540;9.268;2023-05-16T00:18:54;9.70;;;8.80;;
1344;SDS011;15375;48.540;9.268;2023-05-16T00:21:20;8.43;;;7.63;;
1344;SDS011;15375;48.540;9.268;2023-05-16T00:23:46;10.40;;;8.53;;
1344;SDS011;15375;48.540;9.268;2023-05-16T00:26:11;9.40;;;8.40;;
1344;SDS011;15375;48.540;9.268;2023-05-16T00:28:37;11.23;;;8.07;;
1344;SDS011;15375;48.540;9.268;2023-05-16T00:31:02;8.80;;;7.90;;
1344;SDS011;15375;48.540;9.268;2023-05-16T00:33:28;8.50;;;7.60;;
1344;SDS011;15375;48.540;9.268;2023-05-16T00:35:53;8.30;;;7.53;;
1344;SDS011;15375;48.540;9.268;2023-05-16T00:38:19;9.20;;;8.40;;
1344;SDS011;15375;48.540;9.268;2023-05-16T00:40:44;9.70;;;8.77;;
1344;SDS011;15375;48.540;9.268;2023-05-16T00:43:10;11.10;;;7.17;;
1344;SDS011;15375;48.540;9.268;2023-05-16T00:45:36;11.67;;;7.97;;
1344;SDS011;15375;48.540;9.268;2023-05-16T00:48:01;12.73;;;8.27;;
1344;SDS011;15375;48.540;9.268;2023-05-16T00:50:27;10.60;;;8.70;;
1344;SDS011;15375;48.540;9.268;2023-05-16T00:52:53;8.40;;;7.50;;
1344;SDS011;15375;48.540;9.268;2023-05-16T00:55:18;10.17;;;9.10;;
1344;SDS011;15375;48.540;9.268;2023-05-16T00:57:44;9.60;;;8.70;;
1344;SDS011;15375;48.540;9.268;2023-05-16T01:00:09;8.00;;;7.27;;
1344;SDS011;15375;48.540;9.268;2023-05-16T01:02:36;9.27;;;8.47;;
1344;SDS011;15375;48.540;9.268;2023-05-16T01:05:02;9.80;;;8.90;;
1344;SDS011;15375;48.540;9.268;2023-05-16T01:07:32;10.93;;;9.80;;
1344;SDS011;15375;48.540;9.268;2023-05-16T01:09:58;10.30;;;9.20;;
1344;SDS011;15375;48.540;9.268;2023-05-16T01:12:36;10.00;;;9.00;;
1344;SDS011;15375;48.540;9.268;2023-05-16T01:15:27;10.80;;;9.70;;
1344;SDS011;15375;48.540;9.268;2023-05-16T01:20:41;10.07;;;9.03;;
1344;SDS011;15375;48.540;9.268;2023-05-16T01:26:15;10.03;;;9.03;;
1344;SDS011;15375;48.540;9.268;2023-05-16T01:28:47;10.70;;;9.30;;
1344;SDS011;15375;48.540;9.268;2023-05-16T01:31:14;9.60;;;8.07;;
1344;SDS011;15375;48.540;9.268;2023-05-16T01:33:40;10.77;;;9.67;;
1344;SDS011;15375;48.540;9.268;2023-05-16T01:36:25;10.93;;;8.47;;
1344;SDS011;15375;48.540;9.268;2023-05-16T01:39:10;8.60;;;7.80;;
1344;SDS011;15375;48.540;9.268;2023-05-16T01:41:52;9.03;;;8.10;;
1344;SDS011;15375;48.540;9.268;2023-05-16T01:44:31;9.80;;;8.40;;
1344;SDS011;15375;48.540;9.268;2023-05-16T01:46:58;9.80;;;8.90;;
1344;SDS011;15375;48.540;9.268;2023-05-16T01:49:31;9.30;;;8.40;;
1344;SDS011;15375;48.540;9.268;2023-05-16T01:52:03;8.17;;;7.37;;
1344;SDS011;15375;48.540;9.268;2023-05-16T01:54:33;7.77;;;7.07;;
1344;SDS011;15375;48.540;9.268;2023-05-16T01:57:03;8.70;;;7.87;;
1344;SDS011;15375;48.540;9.268;2023-05-16T01:59:29;8.47;;;7.60;;
1344;SDS011;15375;48.540;9.268;2023-05-16T02:01:56;8.87;;;7.97;;
1344;SDS011;15375;48.540;9.268;2023-05-16T02:04:21;8.13;;;7.33;;
1344;SDS011;15375;48.540;9.268;2023-05-16T02:06:48;9.07;;;8.27;;
1344;SDS011;15375;48.540;9.268;2023-05-16T02:09:14;8.97;;;8.07;;
1344;SDS011;15375;48.540;9.268;2023-05-16T02:11:40;9.13;;;7.70;;
1344;SDS011;15375;48.540;9.268;2023-05-16T02:14:05;9.60;;;8.70;;
1344;SDS011;15375;48.540;9.268;2023-05-16T02:16:30;9.90;;;7.97;;
1344;SDS011;15375;48.540;9.268;2023-05-16T02:18:56;9.40;;;8.00;;
1344;SDS011;15375;48.540;9.268;2023-05-16T02:21:21;10.27;;;8.90;;
1344;SDS011;15375;48.540;9.268;2023-05-16T02:23:47;9.30;;;8.30;;
1344;SDS011;15375;48.540;9.268;2023-05-16T02:26:12;9.53;;;8.47;;
1344;SDS011;15375;48.540;9.268;2023-05-16T02:28:37;10.60;;;9.50;;
1344;SDS011;15375;48.540;9.268;2023-05-16T02:31:03;8.77;;;7.93;;
1344;SDS011;15375;48.540;9.268;2023-05-16T02:33:28;11.57;;;8.70;;
1344;SDS011;15375;48.540;9.268;2023-05-16T02:35:54;10.53;;;8.37;;
1344;SDS011;15375;48.540;9.268;2023-05-16T02:38:20;13.60;;;9.43;;
1344;SDS011;15375;48.540;9.268;2023-05-16T02:40:46;10.17;;;9.07;;
1344;SDS011;15375;48.540;9.268;2023-05-16T02:43:12;8.57;;;7.83;;
1344;SDS011;15375;48.540;9.268;2023-05-16T02:45:37;9.80;;;8.80;;
1344;SDS011;15375;48.540;9.268;2023-05-16T02:48:02;11.30;;;8.67;;
1344;SDS011;15375;48.540;9.268;2023-05-16T02:50:28;11.87;;;8.77;;
1344;SDS011;15375;48.540;9.268;2023-05-16T02:52:54;9.90;;;8.90;;
1344;SDS011;15375;48.540;9.268;2023-05-16T02:55:19;10.37;;;8.47;;
1344;SDS011;15375;48.540;9.268;2023-05-16T02:57:44;7.93;;;7.17;;
1344;SDS011;15375;48.540;9.268;2023-05-16T03:00:10;8.60;;;7.80;;
1344;SDS011;15375;48.540;9.268;2023-05-16T03:02:36;9.37;;;8.47;;
1344;SDS011;15375;48.540;9.268;2023-05-16T03:05:02;9.07;;;8.17;;
1344;SDS011;15375;48.540;9.268;2023-05-16T03:07:29;11.03;;;8.70;;
1344;SDS011;15375;48.540;9.268;2023-05-16T03:09:54;9.37;;;8.37;;
1344;SDS011;15375;48.540;9.268;2023-05-16T03:12:19;9.07;;;8.27;;
1344;SDS011;15375;48.540;9.268;2023-05-16T03:14:45;10.53;;;9.37;;
1344;SDS011;15375;48.540;9.268;2023-05-16T03:17:10;8.43;;;7.57;;
1344;SDS011;15375;48.540;9.268;2023-05-16T03:19:35;11.60;;;9.23;;
1344;SDS011;15375;48.540;9.268;2023-05-16T03:22:01;11.23;;;10.20;;
1344;SDS011;15375;48.540;9.268;2023-05-16T03:24:27;10.33;;;9.03;;
1344;SDS011;15375;48.540;9.268;2023-05-16T03:26:52;10.00;;;8.60;;
1344;SDS011;15375;48.540;9.268;2023-05-16T03:29:17;10.17;;;9.27;;
1344;SDS011;15375;48.540;9.268;2023-05-16T03:31:43;12.63;;;9.80;;
1344;SDS011;15375;48.540;9.268;2023-05-16T03:34:08;10.07;;;8.93;;
1344;SDS011;15375;48.540;9.268;2023-05-16T03:36:33;9.80;;;8.83;;
1344;SDS011;15375;48.540;9.268;2023-05-16T03:38:59;10.10;;;9.17;;
1344;SDS011;15375;48.540;9.268;2023-05-16T03:41:25;10.40;;;9.40;;
1344;SDS011;15375;48.540;9.268;2023-05-16T03:43:50;9.50;;;8.60;;
1344;SDS011;15375;48.540;9.268;2023-05-16T03:46:15;10.33;;;9.33;;
1344;SDS011;15375;48.540;9.268;2023-05-16T03:48:41;10.80;;;9.60;;
1344;SDS011;15375;48.540;9.268;2023-05-16T03:51:06;12.10;;;10.63;;
1344;SDS011;15375;48.540;9.268;2023-05-16T03:53:32;10.47;;;9.40;;
1344;SDS011;15375;48.540;9.268;2023-05-16T03:55:57;13.27;;;10.03;;
1344;SDS011;15375;48.540;9.268;2023-05-16T03:58:23;13.60;;;8.93;;
1344;SDS011;15375;48.540;9.268;2023-05-16T04:00:49;9.83;;;8.90;;
1344;SDS011;15375;48.540;9.268;2023-05-16T04:03:14;10.20;;;9.10;;
1344;SDS011;15375;48.540;9.268;2023-05-16T04:05:40;10.40;;;9.40;;
1344;SDS011;15375;48.540;9.268;2023-05-16T04:08:05;10.73;;;9.63;;
1344;SDS011;15375;48.540;9.268;2023-05-16T04:10:30;10.50;;;9.40;;
1344;SDS011;15375;48.540;9.268;2023-05-16T04:12:56;10.20;;;8.83;;
1344;SDS011;15375;48.540;9.268;2023-05-16T04:15:21;12.10;;;10.93;;
1344;SDS011;15375;48.540;9.268;2023-05-16T04:17:46;11.83;;;10.67;;
1344;SDS011;15375;48.540;9.268;2023-05-16T04:20:12;13.27;;;10.23;;
1344;SDS011;15375;48.540;9.268;2023-05-16T04:22:37;10.43;;;9.43;;
1344;SDS011;15375;48.540;9.268;2023-05-16T04:25:03;11.10;;;10.00;;
1344;SDS011;15375;48.540;9.268;2023-05-16T04:27:28;11.10;;;9.90;;
1344;SDS011;15375;48.540;9.268;2023-05-16T04:29:54;11.93;;;10.70;;
1344;SDS011;15375;48.540;9.268;2023-05-16T04:32:20;9.60;;;8.60;;
1344;SDS011;15375;48.540;9.268;2023-05-16T04:34:45;9.23;;;8.33;;
1344;SDS011;15375;48.540;9.268;2023-05-16T04:37:12;9.97;;;8.97;;
1344;SDS011;15375;48.540;9.268;2023-05-16T04:39:38;11.23;;;10.13;;
1344;SDS011;15375;48.540;9.268;2023-05-16T04:42:03;10.77;;;9.70;;
1344;SDS011;15375;48.540;9.268;2023-05-16T04:44:29;12.33;;;11.03;;
1344;SDS011;15375;48.540;9.268;2023-05-16T04:46:55;13.43;;;11.37;;
1344;SDS011;15375;48.540;9.268;2023-05-16T04:49:21;12.77;;;11.33;;
1344;SDS011;15375;48.540;9.268;2023-05-16T04:51:46;21.03;;;10.60;;
1344;SDS011;15375;48.540;9.268;2023-05-16T04:54:12;11.37;;;10.17;;
1344;SDS011;15375;48.540;9.268;2023-05-16T04:56:38;12.43;;;10.23;;
1344;SDS011;15375;48.540;9.268;2023-05-16T04:59:03;11.67;;;10.47;;
1344;SDS011;15375;48.540;9.268;2023-05-16T05:01:29;10.73;;;9.73;;
1344;SDS011;15375;48.540;9.268;2023-05-16T05:03:54;12.20;;;9.53;;
1344;SDS011;15375;48.540;9.268;2023-05-16T05:06:20;13.07;;;10.63;;
1344;SDS011;15375;48.540;9.268;2023-05-16T05:08:46;10.43;;;9.33;;
1344;SDS011;15375;48.540;9.268;2023-05-16T05:11:11;12.17;;;10.60;;
1344;SDS011;15375;48.540;9.268;2023-05-16T05:13:36;12.80;;;11.50;;
1344;SDS011;15375;48.540;9.268;2023-05-16T05:16:02;13.20;;;11.80;;
1344;SDS011;15375;48.540;9.268;2023-05-16T05:18:28;14.50;;;12.97;;
1344;SDS011;15375;48.540;9.268;2023-05-16T05:20:54;14.90;;;11.80;;
1344;SDS011;15375;48.540;9.268;2023-05-16T05:23:20;14.97;;;12.47;;
1344;SDS011;15375;48.540;9.268;2023-05-16T05:25:45;13.10;;;11.80;;
1344;SDS011;15375;48.540;9.268;2023-05-16T05:28:11;13.33;;;11.93;;
1344;SDS011;15375;48.540;9.268;2023-05-16T05:30:36;12.80;;;10.80;;
1344;SDS011;15375;48.540;9.268;2023-05-16T05:33:02;18.50;;;13.87;;
1344;SDS011;15375;48.540;9.268;2023-05-16T05:35:27;15.77;;;14.13;;
1344;SDS011;15375;48.540;9.268;2023-05-16T05:37:53;15.27;;;12.50;;
1344;SDS011;15375;48.540;9.268;2023-05-16T05:40:18;17.40;;;14.00;;
1344;SDS011;15375;48.540;9.268;2023-05-16T05:42:43;18.53;;;13.73;;
1344;SDS011;15375;48.540;9.268;2023-05-16T05:45:09;25.63;;;18.60;;
1344;SDS011;15375;48.540;9.268;2023-05-16T05:47:35;31.20;;;21.80;;
1344;SDS011;15375;48.540;9.268;2023-05-16T05:50:00;34.23;;;22.20;;
1344;SDS011;15375;48.540;9.268;2023-05-16T05:52:26;31.20;;;22.73;;
1344;SDS011;15375;48.540;9.268;2023-05-16T05:54:52;30.80;;;23.77;;
1344;SDS011;15375;48.540;9.268;2023-05-16T05:57:18;35.17;;;25.90;;
1344;SDS011;15375;48.540;9.268;2023-05-16T05:59:43;39.40;;;26.87;;
1344;SDS011;15375;48.540;9.268;2023-05-16T06:02:09;41.40;;;29.70;;
1344;SDS011;15375;48.540;9.268;2023-05-16T06:04:34;38.67;;;26.87;;
1344;SDS011;15375;48.540;9.268;2023-05-16T06:07:00;41.33;;;28.13;;
1344;SDS011;15375;48.540;9.268;2023-05-16T06:09:25;36.13;;;26.67;;
1344;SDS011;15375;48.540;9.268;2023-05-16T06:11:51;39.00;;;28.10;;
1344;SDS011;15375;48.540;9.268;2023-05-16T06:14:16;39.10;;;26.60;;
1344;SDS011;15375;48.540;9.268;2023-05-16T06:16:41;40.57;;;28.47;;
1344;SDS011;15375;48.540;9.268;2023-05-16T06:19:07;35.23;;;25.20;;
1344;SDS011;15375;48.540;9.268;2023-05-16T06:21:33;39.97;;;27.17;;
1344;SDS011;15375;48.540;9.268;2023-05-16T06:23:58;38.60;;;26.17;;
1344;SDS011;15375;48.540;9.268;2023-05-16T06:26:24;39.17;;;27.17;;
1344;SDS011;15375;48.540;9.268;2023-05-16T06:28:49;36.17;;;26.43;;
1344;SDS011;15375;48.540;9.268;2023-05-16T06:31:15;41.73;;;27.33;;
1344;SDS011;15375;48.540;9.268;2023-05-16T06:33:40;45.40;;;29.40;;
1344;SDS011;15375;48.540;9.268;2023-05-16T06:36:06;41.93;;;30.60;;
1344;SDS011;15375;48.540;9.268;2023-05-16T06:38:31;43.53;;;31.00;;
1344;SDS011;15375;48.540;9.268;2023-05-16T06:40:56;42.30;;;30.57;;
1344;SDS011;15375;48.540;9.268;2023-05-16T06:43:22;43.90;;;28.40;;
1344;SDS011;15375;48.540;9.268;2023-05-16T06:45:47;46.17;;;29.30;;
1344;SDS011;15375;48.540;9.268;2023-05-16T06:48:13;45.00;;;29.77;;
1344;SDS011;15375;48.540;9.268;2023-05-16T06:50:39;42.93;;;30.27;;
1344;SDS011;15375;48.540;9.268;2023-05-16T06:53:05;51.70;;;30.90;;
1344;SDS011;15375;48.540;9.268;2023-05-16T06:55:31;48.27;;;31.83;;
1344;SDS011;15375;48.540;9.268;2023-05-16T06:57:57;49.23;;;30.00;;
1344;SDS011;15375;48.540;9.268;2023-05-16T07:00:22;45.33;;;29.77;;
1344;SDS011;15375;48.540;9.268;2023-05-16T07:02:48;41.93;;;27.40;;
1344;SDS011;15375;48.540;9.268;2023-05-16T07:05:14;51.13;;;32.27;;
1344;SDS011;15375;48.540;9.268;2023-05-16T07:07:40;46.17;;;30.73;;
1344;SDS011;15375;48.540;9.268;2023-05-16T07:10:05;47.50;;;32.33;;
1344;SDS011;15375;48.540;9.268;2023-05-16T07:12:31;51.27;;;33.27;;
1344;SDS011;15375;48.540;9.268;2023-05-16T07:14:56;47.33;;;32.53;;
1344;SDS011;15375;48.540;9.268;2023-05-16T07:17:22;41.47;;;29.30;;
1344;SDS011;15375;48.540;9.268;2023-05-16T07:19:48;47.83;;;31.63;;
1344;SDS011;15375;48.540;9.268;2023-05-16T07:22:14;44.23;;;30.97;;
1344;SDS011;15375;48.540;9.268;2023-05-16T07:24:39;46.80;;;32.17;;
1344;SDS011;15375;48.540;9.268;2023-05-16T07:27:05;45.93;;;30.70;;
1344;SDS011;15375;48.540;9.268;2023-05-16T07:29:30;40.77;;;28.10;;
1344;SDS011;15375;48.540;9.268;2023-05-16T07:31:56;36.57;;;27.50;;
1344;SDS011;15375;48.540;9.268;2023-05-16T07:34:21;36.07;;;27.00;;
1344;SDS011;15375;48.540;9.268;2023-05-16T07:36:47;33.63;;;25.63;;
1344;SDS011;15375;48.540;9.268;2023-05-16T07:39:12;38.00;;;26.07;;
1344;SDS011;15375;48.540;9.268;2023-05-16T07:41:38;37.60;;;26.13;;
1344;SDS011;15375;48.540;9.268;2023-05-16T07:44:04;38.20;;;27.43;;
1344;SDS011;15375;48.540;9.268;2023-05-16T07:46:29;33.80;;;24.70;;
1344;SDS011;15375;48.540;9.268;2023-05-16T07:48:54;36.87;;;25.07;;
1344;SDS011;15375;48.540;9.268;2023-05-16T07:51:20;36.53;;;26.77;;
1344;SDS011;15375;48.540;9.268;2023-05-16T07:53:45;31.33;;;22.70;;
1344;SDS011;15375;48.540;9.268;2023-05-16T07:56:11;30.37;;;23.43;;
1344;SDS011;15375;48.540;9.268;2023-05-16T07:58:36;39.33;;;27.83;;
1344;SDS011;15375;48.540;9.268;2023-05-16T08:01:02;37.10;;;26.67;;
1344;SDS011;15375;48.540;9.268;2023-05-16T08:03:28;33.50;;;23.43;;
1344;SDS011;15375;48.540;9.268;2023-05-16T08:05:53;36.03;;;23.87;;
1344;SDS011;15375;48.540;9.268;2023-05-16T08:08:18;31.47;;;22.73;;
1344;SDS011;15375;48.540;9.268;2023-05-16T08:10:44;34.57;;;23.60;;
1344;SDS011;15375;48.540;9.268;2023-05-16T08:13:09;39.10;;;24.77;;
1344;SDS011;15375;48.540;9.268;2023-05-16T08:15:35;32.53;;;24.23;;
1344;SDS011;15375;48.540;9.268;2023-05-16T08:18:00;34.00;;;23.97;;
1344;SDS011;15375;48.540;9.268;2023-05-16T08:20:26;31.03;;;23.57;;
1344;SDS011;15375;48.540;9.268;2023-05-16T08:22:52;29.33;;;23.50;;
1344;SDS011;15375;48.540;9.268;2023-05-16T08:25:18;35.33;;;25.33;;
1344;SDS011;15375;48.540;9.268;2023-05-16T08:27:44;32.50;;;24.20;;
1344;SDS011;15375;48.540;9.268;2023-05-16T08:30:11;28.50;;;21.90;;
1344;SDS011;15375;48.540;9.268;2023-05-16T08:32:37;26.77;;;21.50;;
1344;SDS011;15375;48.540;9.268;2023-05-16T08:35:02;23.60;;;21.00;;
1344;SDS011;15375;48.540;9.268;2023-05-16T08:37:28;26.90;;;21.60;;
1344;SDS011;15375;48.540;9.268;2023-05-16T08:39:53;23.63;;;18.77;;
1344;SDS011;15375;48.540;9.268;2023-05-16T08:42:18;23.00;;;18.00;;
1344;SDS011;15375;48.540;9.268;2023-05-16T08:44:44;21.70;;;18.60;;
1344;SDS011;15375;48.540;9.268;2023-05-16T08:47:10;25.03;;;18.23;;
1344;SDS011;15375;48.540;9.268;2023-05-16T08:49:38;22.10;;;19.17;;
1344;SDS011;15375;48.540;9.268;2023-05-16T08:52:06;24.13;;;18.60;;
1344;SDS011;15375;48.540;9.268;2023-05-16T08:54:33;23.90;;;17.97;;
1344;SDS011;15375;48.540;9.268;2023-05-16T08:56:59;21.60;;;18.90;;
1344;SDS011;15375;48.540;9.268;2023-05-16T08:59:25;19.40;;;17.30;;
1344;SDS011;15375;48.540;9.268;2023-05-16T09:01:51;22.00;;;18.33;;
1344;SDS011;15375;48.540;9.268;2023-05-16T09:04:17;20.70;;;18.10;;
1344;SDS011;15375;48.540;9.268;2023-05-16T09:06:43;21.73;;;17.63;;
1344;SDS011;15375;48.540;9.268;2023-05-16T09:09:09;23.93;;;18.27;;
1344;SDS011;15375;48.540;9.268;2023-05-16T09:11:36;19.67;;;16.90;;
1344;SDS011;15375;48.540;9.268;2023-05-16T09:14:03;20.73;;;17.77;;
1344;SDS011;15375;48.540;9.268;2023-05-16T09:16:29;16.83;;;14.93;;
1344;SDS011;15375;48.540;9.268;2023-05-16T09:18:57;17.33;;;15.53;;
1344;SDS011;15375;48.540;9.268;2023-05-16T09:21:27;16.67;;;15.07;;
1344;SDS011;15375;48.540;9.268;2023-05-16T09:23:56;20.93;;;15.30;;
1344;SDS011;15375;48.540;9.268;2023-05-16T09:26:26;16.77;;;14.60;;
1344;SDS011;15375;48.540;9.268;2023-05-16T09:28:52;18.37;;;16.43;;
1344;SDS011;15375;48.540;9.268;2023-05-16T09:31:20;18.57;;;15.30;;
1344;SDS011;15375;48.540;9.268;2023-05-16T09:33:47;21.10;;;16.43;;
1344;SDS011;15375;48.540;9.268;2023-05-16T09:36:14;19.40;;;15.57;;
1344;SDS011;15375;48.540;9.268;2023-05-16T09:38:39;14.83;;;13.33;;
1344;SDS011;15375;48.540;9.268;2023-05-16T09:41:05;16.90;;;14.53;;
1344;SDS011;15375;48.540;9.268;2023-05-16T09:43:30;17.37;;;14.50;;
1344;SDS011;15375;48.540;9.268;2023-05-16T09:45:57;17.23;;;14.53;;
1344;SDS011;15375;48.540;9.268;2023-05-16T09:48:23;17.90;;;14.70;;
1344;SDS011;15375;48.540;9.268;2023-05-16T09:50:52;17.10;;;15.40;;
1344;SDS011;15375;48.540;9.268;2023-05-16T09:53:28;20.70;;;18.47;;
1344;SDS011;15375;48.540;9.268;2023-05-16T09:56:04;21.17;;;16.90;;
1344;SDS011;15375;48.540;9.268;2023-05-16T09:58:32;20.40;;;17.97;;
1344;SDS011;15375;48.540;9.268;2023-05-16T10:01:00;21.17;;;18.87;;
1344;SDS011;15375;48.540;9.268;2023-05-16T10:03:26;33.70;;;22.00;;
1344;SDS011;15375;48.540;9.268;2023-05-16T10:05:52;20.00;;;17.90;;
1344;SDS011;15375;48.540;9.268;2023-05-16T10:08:21;20.70;;;18.47;;
1344;SDS011;15375;48.540;9.268;2023-05-16T10:10:52;20.97;;;18.77;;
1344;SDS011;15375;48.540;9.268;2023-05-16T10:13:23;21.07;;;17.50;;
1344;SDS011;15375;48.540;9.268;2023-05-16T10:15:54;19.70;;;16.67;;
1344;SDS011;15375;48.540;9.268;2023-05-16T10:18:21;22.80;;;18.00;;
1344;SDS011;15375;48.540;9.268;2023-05-16T10:20:50;24.77;;;18.63;;
1344;SDS011;15375;48.540;9.268;2023-05-16T10:23:18;27.73;;;18.57;;
1344;SDS011;15375;48.540;9.268;2023-05-16T10:25:46;24.03;;;21.23;;
1344;SDS011;15375;48.540;9.268;2023-05-16T10:28:12;28.17;;;25.23;;
1344;SDS011;15375;48.540;9.268;2023-05-16T10:30:39;24.13;;;20.43;;
1344;SDS011;15375;48.540;9.268;2023-05-16T10:33:08;22.47;;;17.83;;
1344;SDS011;15375;48.540;9.268;2023-05-16T10:35:36;20.80;;;18.57;;
1344;SDS011;15375;48.540;9.268;2023-05-16T10:38:02;24.30;;;19.00;;
1344;SDS011;15375;48.540;9.268;2023-05-16T10:40:29;20.00;;;17.77;;
1344;SDS011;15375;48.540;9.268;2023-05-16T10:43:01;23.53;;;18.30;;
1344;SDS011;15375;48.540;9.268;2023-05-16T10:45:28;24.77;;;19.70;;
1344;SDS011;15375;48.540;9.268;2023-05-16T10:47:55;25.80;;;21.60;;
1344;SDS011;15375;48.540;9.268;2023-05-16T10:50:35;25.40;;;20.07;;
1344;SDS011;15375;48.540;9.268;2023-05-16T10:53:14;25.23;;;20.70;;
1344;SDS011;15375;48.540;9.268;2023-05-16T10:55:47;23.97;;;20.90;;
1344;SDS011;15375;48.540;9.268;2023-05-16T11:01:21;22.70;;;19.23;;
1344;SDS011;15375;48.540;9.268;2023-05-16T11:06:25;24.60;;;20.90;;
1344;SDS011;15375;48.540;9.268;2023-05-16T11:11:44;27.17;;;21.83;;
1344;SDS011;15375;48.540;9.268;2023-05-16T11:19:48;27.70;;;22.13;;
1344;SDS011;15375;48.540;9.268;2023-05-16T11:32:30;27.70;;;21.60;;
1344;SDS011;15375;48.540;9.268;2023-05-16T11:34:58;26.80;;;20.20;;
1344;SDS011;15375;48.540;9.268;2023-05-16T11:37:23;38.90;;;22.43;;
1344;SDS011;15375;48.540;9.268;2023-05-16T11:39:49;48.83;;;26.97;;
1344;SDS011;15375;48.540;9.268;2023-05-16T11:42:14;33.60;;;22.77;;
1344;SDS011;15375;48.540;9.268;2023-05-16T11:44:41;29.13;;;21.73;;
1344;SDS011;15375;48.540;9.268;2023-05-16T11:47:07;26.57;;;20.07;;
1344;SDS011;15375;48.540;9.268;2023-05-16T11:49:36;33.00;;;20.73;;
1344;SDS011;15375;48.540;9.268;2023-05-16T11:52:02;30.47;;;21.83;;
1344;SDS011;15375;48.540;9.268;2023-05-16T11:54:28;21.50;;;17.83;;
1344;SDS011;15375;48.540;9.268;2023-05-16T11:56:55;24.80;;;19.23;;
1344;SDS011;15375;48.540;9.268;2023-05-16T11:59:21;23.80;;;17.87;;
1344;SDS011;15375;48.540;9.268;2023-05-16T12:01:47;29.23;;;18.50;;
1344;SDS011;15375;48.540;9.268;2023-05-16T12:04:14;25.00;;;19.27;;
1344;SDS011;15375;48.540;9.268;2023-05-16T12:06:41;25.40;;;19.83;;
1344;SDS011;15375;48.540;9.268;2023-05-16T12:09:12;20.57;;;17.30;;
1344;SDS011;15375;48.540;9.268;2023-05-16T12:11:42;24.00;;;18.73;;
1344;SDS011;15375;48.540;9.268;2023-05-16T12:14:11;19.97;;;17.50;;
1344;SDS011;15375;48.540;9.268;2023-05-16T12:16:38;24.90;;;19.10;;
1344;SDS011;15375;48.540;9.268;2023-05-16T12:19:06;24.90;;;17.40;;
1344;SDS011;15375;48.540;9.268;2023-05-16T12:21:34;20.47;;;17.33;;
1344;SDS011;15375;48.540;9.268;2023-05-16T12:24:00;24.30;;;17.40;;
1344;SDS011;15375;48.540;9.268;2023-05-16T12:26:27;19.93;;;15.43;;
1344;SDS011;15375;48.540;9.268;2023-05-16T12:28:58;23.27;;;15.73;;
1344;SDS011;15375;48.540;9.268;2023-05-16T12:31:29;19.20;;;13.17;;
1344;SDS011;15375;48.540;9.268;2023-05-16T12:33:55;19.73;;;12.47;;
1344;SDS011;15375;48.540;9.268;2023-05-16T12:36:21;17.27;;;12.40;;
1344;SDS011;15375;48.540;9.268;2023-05-16T12:38:48;17.67;;;13.33;;
1344;SDS011;15375;48.540;9.268;2023-05-16T12:41:20;18.20;;;13.70;;
1344;SDS011;15375;48.540;9.268;2023-05-16T12:43:47;14.43;;;11.23;;
1344;SDS011;15375;48.540;9.268;2023-05-16T12:46:13;17.20;;;13.17;;
1344;SDS011;15375;48.540;9.268;2023-05-16T12:48:39;17.60;;;14.10;;
1344;SDS011;15375;48.540;9.268;2023-05-16T12:51:14;17.63;;;11.70;;
1344;SDS011;15375;48.540;9.268;2023-05-16T12:53:42;19.10;;;13.67;;
1344;SDS011;15375;48.540;9.268;2023-05-16T12:56:09;15.87;;;12.53;;
1344;SDS011;15375;48.540;9.268;2023-05-16T12:58:35;15.00;;;12.60;;
1344;SDS011;15375;48.540;9.268;2023-05-16T13:01:01;20.93;;;12.23;;
1344;SDS011;15375;48.540;9.268;2023-05-16T13:03:27;15.47;;;12.07;;
1344;SDS011;15375;48.540;9.268;2023-05-16T13:05:53;17.80;;;14.20;;
1344;SDS011;15375;48.540;9.268;2023-05-16T13:08:18;19.57;;;14.70;;
1344;SDS011;15375;48.540;9.268;2023-05-16T13:10:44;19.37;;;13.03;;
1344;SDS011;15375;48.540;9.268;2023-05-16T13:13:09;20.93;;;14.10;;
1344;SDS011;15375;48.540;9.268;2023-05-16T13:15:36;16.67;;;12.97;;
1344;SDS011;15375;48.540;9.268;2023-05-16T13:18:02;16.73;;;13.70;;
1344;SDS011;15375;48.540;9.268;2023-05-16T13:20:27;14.60;;;11.93;;
1344;SDS011;15375;48.540;9.268;2023-05-16T13:22:53;18.93;;;14.80;;
1344;SDS011;15375;48.540;9.268;2023-05-16T13:25:19;18.10;;;13.93;;
1344;SDS011;15375;48.540;9.268;2023-05-16T13:27:45;19.13;;;14.10;;
1344;SDS011;15375;48.540;9.268;2023-05-16T13:30:13;19.03;;;14.67;;
1344;SDS011;15375;48.540;9.268;2023-05-16T13:32:39;14.97;;;11.80;;
1344;SDS011;15375;48.540;9.268;2023-05-16T13:35:04;13.20;;;11.90;;
1344;SDS011;15375;48.540;9.268;2023-05-16T13:37:30;12.70;;;10.97;;
1344;SDS011;15375;48.540;9.268;2023-05-16T13:39:55;15.17;;;12.07;;
1344;SDS011;15375;48.540;9.268;2023-05-16T13:42:21;16.20;;;12.40;;
1344;SDS011;15375;48.540;9.268;2023-05-16T13:44:46;13.57;;;12.13;;
1344;SDS011;15375;48.540;9.268;2023-05-16T13:47:12;12.10;;;10.10;;
1344;SDS011;15375;48.540;9.268;2023-05-16T13:49:37;10.63;;;8.90;;
1344;SDS011;15375;48.540;9.268;2023-05-16T13:52:03;10.70;;;9.60;;
1344;SDS011;15375;48.540;9.268;2023-05-16T13:54:29;9.57;;;8.60;;
1344;SDS011;15375;48.540;9.268;2023-05-16T13:56:54;9.77;;;8.17;;
1344;SDS011;15375;48.540;9.268;2023-05-16T13:59:19;9.93;;;8.67;;
1344;SDS011;15375;48.540;9.268;2023-05-16T14:01:45;10.30;;;7.77;;
1344;SDS011;15375;48.540;9.268;2023-05-16T14:04:10;10.20;;;7.83;;
1344;SDS011;15375;48.540;9.268;2023-05-16T14:06:36;9.00;;;7.20;;
1344;SDS011;15375;48.540;9.268;2023-05-16T14:09:01;7.90;;;7.10;;
1344;SDS011;15375;48.540;9.268;2023-05-16T14:11:27;7.23;;;6.53;;
1344;SDS011;15375;48.540;9.268;2023-05-16T14:13:53;8.77;;;7.97;;
1344;SDS011;15375;48.540;9.268;2023-05-16T14:16:18;8.83;;;7.10;;
1344;SDS011;15375;48.540;9.268;2023-05-16T14:18:44;7.10;;;6.40;;
1344;SDS011;15375;48.540;9.268;2023-05-16T14:21:09;8.80;;;6.47;;
1344;SDS011;15375;48.540;9.268;2023-05-16T14:23:35;6.40;;;5.80;;
1344;SDS011;15375;48.540;9.268;2023-05-16T14:26:00;9.80;;;7.43;;
1344;SDS011;15375;48.540;9.268;2023-05-16T14:28:26;6.87;;;6.20;;
1344;SDS011;15375;48.540;9.268;2023-05-16T14:30:52;7.43;;;6.20;;
1344;SDS011;15375;48.540;9.268;2023-05-16T14:33:18;9.03;;;6.60;;
1344;SDS011;15375;48.540;9.268;2023-05-16T14:35:43;6.67;;;6.07;;
1344;SDS011;15375;48.540;9.268;2023-05-16T14:38:09;6.60;;;6.00;;
1344;SDS011;15375;48.540;9.268;2023-05-16T14:40:34;7.20;;;5.90;;
1344;SDS011;15375;48.540;9.268;2023-05-16T14:43:00;5.80;;;5.30;;
1344;SDS011;15375;48.540;9.268;2023-05-16T14:45:28;6.50;;;5.90;;
1344;SDS011;15375;48.540;9.268;2023-05-16T14:47:54;7.07;;;6.37;;
1344;SDS011;15375;48.540;9.268;2023-05-16T14:50:19;6.30;;;5.70;;
1344;SDS011;15375;48.540;9.268;2023-05-16T14:52:45;7.93;;;5.50;;
1344;SDS011;15375;48.540;9.268;2023-05-16T14:55:10;7.37;;;6.67;;
1344;SDS011;15375;48.540;9.268;2023-05-16T14:57:36;7.33;;;6.43;;
1344;SDS011;15375;48.540;9.268;2023-05-16T15:00:02;6.43;;;5.87;;
1344;SDS011;15375;48.540;9.268;2023-05-16T15:02:28;7.07;;;6.47;;
1344;SDS011;15375;48.540;9.268;2023-05-16T15:04:53;7.33;;;6.53;;
1344;SDS011;15375;48.540;9.268;2023-05-16T15:07:19;7.00;;;6.30;;
1344;SDS011;15375;48.540;9.268;2023-05-16T15:09:44;7.03;;;6.40;;